sensor_id;sensor_type;location;lat;lon;timestamp;pressure;altitude;pressure_sealevel;temperature;humidity
39141;BME280;24875;48.436;10.298;2023-02-05T00:01:10;98184.50;;;1.77;98.69
39141;BME280;24875;48.436;10.298;2023-02-05T00:03:37;98181.59;;;1.66;99.17
39141;BME280;24875;48.436;10.298;2023-02-05T00:06:03;98184.28;;;1.65;99.12
39141;BME280;24875;48.436;10.298;2023-02-05T00:08:30;98177.53;;;1.44;100.00
39141;BME280;24875;48.436;10.298;2023-02-05T00:10:59;98181.91;;;1.77;99.35
39141;BME280;24875;48.436;10.298;2023-02-05T00:13:31;98178.75;;;1.54;99.92
39141;BME280;24875;48.436;10.298;2023-02-05T00:15:58;98173.81;;;1.66;98.89
39141;BME280;24875;48.436;10.298;2023-02-05T00:18:24;98176.78;;;1.59;98.98
39141;BME280;24875;48.436;10.298;2023-02-05T00:20:51;98175.41;;;1.52;99.47
39141;BME280;24875;48.436;10.298;2023-02-05T00:23:17;98173.63;;;1.35;99.69
39141;BME280;24875;48.436;10.298;2023-02-05T00:25:44;98179.00;;;1.32;99.71
39141;BME280;24875;48.436;10.298;2023-02-05T00:28:12;98186.69;;;1.34;100.00
39141;BME280;24875;48.436;10.298;2023-02-05T00:30:39;98194.13;;;1.41;99.33
39141;BME280;24875;48.436;10.298;2023-02-05T00:33:05;98183.31;;;1.32;98.76
39141;BME280;24875;48.436;10.298;2023-02-05T00:35:32;98184.31;;;1.29;100.00
39141;BME280;24875;48.436;10.298;2023-02-05T00:37:58;98184.66;;;1.40;99.83
39141;BME280;24875;48.436;10.298;2023-02-05T00:40:25;98183.88;;;1.38;98.70
39141;BME280;24875;48.436;10.298;2023-02-05T00:42:51;98179.59;;;1.37;98.57
39141;BME280;24875;48.436;10.298;2023-02-05T00:45:19;98172.81;;;1.52;98.35
39141;BME280;24875;48.436;10.298;2023-02-05T00:47:46;98171.75;;;1.39;98.98
39141;BME280;24875;48.436;10.298;2023-02-05T00:50:12;98172.84;;;1.33;99.49
39141;BME280;24875;48.436;10.298;2023-02-05T00:52:39;98169.97;;;1.39;98.59
39141;BME280;24875;48.436;10.298;2023-02-05T00:55:06;98165.22;;;1.30;98.84
39141;BME280;24875;48.436;10.298;2023-02-05T00:57:32;98166.28;;;1.26;98.98
39141;BME280;24875;48.436;10.298;2023-02-05T00:59:59;98160.94;;;1.29;99.05
39141;BME280;24875;48.436;10.298;2023-02-05T01:02:26;98156.97;;;1.22;100.00
39141;BME280;24875;48.436;10.298;2023-02-05T01:04:53;98158.25;;;1.14;99.40
39141;BME280;24875;48.436;10.298;2023-02-05T01:07:20;98164.16;;;1.18;99.38
39141;BME280;24875;48.436;10.298;2023-02-05T01:09:46;98165.88;;;1.17;98.55
39141;BME280;24875;48.436;10.298;2023-02-05T01:12:13;98163.84;;;1.23;98.06
39141;BME280;24875;48.436;10.298;2023-02-05T01:14:40;98164.16;;;1.18;96.65
39141;BME280;24875;48.436;10.298;2023-02-05T01:17:07;98173.97;;;1.11;97.66
39141;BME280;24875;48.436;10.298;2023-02-05T01:19:35;98179.56;;;1.20;97.98
39141;BME280;24875;48.436;10.298;2023-02-05T01:22:02;98171.03;;;1.00;99.60
39141;BME280;24875;48.436;10.298;2023-02-05T01:24:29;98172.56;;;1.04;99.68
39141;BME280;24875;48.436;10.298;2023-02-05T01:26:57;98179.25;;;1.10;99.03
39141;BME280;24875;48.436;10.298;2023-02-05T01:29:23;98170.75;;;1.06;98.68
39141;BME280;24875;48.436;10.298;2023-02-05T01:31:50;98166.66;;;0.84;99.02
39141;BME280;24875;48.436;10.298;2023-02-05T01:34:17;98170.59;;;0.56;100.00
39141;BME280;24875;48.436;10.298;2023-02-05T01:36:45;98162.09;;;0.52;100.00
39141;BME280;24875;48.436;10.298;2023-02-05T01:39:11;98161.91;;;0.57;100.00
39141;BME280;24875;48.436;10.298;2023-02-05T01:41:38;98156.22;;;0.67;98.13
39141;BME280;24875;48.436;10.298;2023-02-05T01:44:08;98158.38;;;0.76;98.18
39141;BME280;24875;48.436;10.298;2023-02-05T01:46:36;98159.78;;;0.64;98.12
39141;BME280;24875;48.436;10.298;2023-02-05T01:49:05;98156.38;;;0.64;99.15
39141;BME280;24875;48.436;10.298;2023-02-05T01:51:35;98161.56;;;0.64;99.79
39141;BME280;24875;48.436;10.298;2023-02-05T01:54:04;98153.69;;;0.65;98.76
39141;BME280;24875;48.436;10.298;2023-02-05T01:56:34;98156.84;;;0.35;99.20
39141;BME280;24875;48.436;10.298;2023-02-05T01:59:05;98155.69;;;0.42;100.00
39141;BME280;24875;48.436;10.298;2023-02-05T02:01:32;98148.72;;;0.24;100.00
39141;BME280;24875;48.436;10.298;2023-02-05T02:04:00;98146.97;;;0.43;100.00
39141;BME280;24875;48.436;10.298;2023-02-05T02:06:29;98146.84;;;0.46;99.87
39141;BME280;24875;48.436;10.298;2023-02-05T02:08:56;98141.78;;;0.43;99.28
39141;BME280;24875;48.436;10.298;2023-02-05T02:11:26;98145.06;;;0.47;97.80
39141;BME280;24875;48.436;10.298;2023-02-05T02:13:55;98136.75;;;0.40;97.63
39141;BME280;24875;48.436;10.298;2023-02-05T02:16:22;98135.19;;;0.36;97.37
39141;BME280;24875;48.436;10.298;2023-02-05T02:18:50;98137.28;;;0.47;98.18
39141;BME280;24875;48.436;10.298;2023-02-05T02:21:40;98135.88;;;0.58;98.39
39141;BME280;24875;48.436;10.298;2023-02-05T02:27:36;98136.66;;;0.42;95.51
39141;BME280;24875;48.436;10.298;2023-02-05T02:30:08;98133.66;;;0.32;95.87
39141;BME280;24875;48.436;10.298;2023-02-05T02:32:37;98133.94;;;0.26;96.94
39141;BME280;24875;48.436;10.298;2023-02-05T02:35:09;98134.72;;;0.28;96.67
39141;BME280;24875;48.436;10.298;2023-02-05T02:37:43;98131.41;;;0.25;96.62
39141;BME280;24875;48.436;10.298;2023-02-05T02:40:15;98126.72;;;0.14;97.12
39141;BME280;24875;48.436;10.298;2023-02-05T02:42:47;98123.56;;;0.08;97.38
39141;BME280;24875;48.436;10.298;2023-02-05T02:45:16;98108.97;;;0.05;99.18
39141;BME280;24875;48.436;10.298;2023-02-05T02:47:48;98116.97;;;0.19;98.81
39141;BME280;24875;48.436;10.298;2023-02-05T02:50:17;98107.38;;;0.21;97.79
39141;BME280;24875;48.436;10.298;2023-02-05T02:52:46;98107.09;;;0.09;97.45
39141;BME280;24875;48.436;10.298;2023-02-05T02:55:16;98095.38;;;0.19;98.06
39141;BME280;24875;48.436;10.298;2023-02-05T02:57:47;98093.13;;;0.11;98.67
39141;BME280;24875;48.436;10.298;2023-02-05T03:00:19;98087.84;;;0.14;100.00
39141;BME280;24875;48.436;10.298;2023-02-05T03:02:47;98089.97;;;0.05;99.98
39141;BME280;24875;48.436;10.298;2023-02-05T03:05:18;98082.50;;;0.17;98.63
39141;BME280;24875;48.436;10.298;2023-02-05T03:07:49;98087.34;;;0.06;98.78
39141;BME280;24875;48.436;10.298;2023-02-05T03:10:22;98093.03;;;0.14;98.56
39141;BME280;24875;48.436;10.298;2023-02-05T03:12:51;98074.88;;;0.14;97.43
39141;BME280;24875;48.436;10.298;2023-02-05T03:15:18;98075.25;;;-0.13;97.16
39141;BME280;24875;48.436;10.298;2023-02-05T03:17:44;98087.88;;;-0.24;98.03
39141;BME280;24875;48.436;10.298;2023-02-05T03:20:14;98084.31;;;-0.03;98.34
39141;BME280;24875;48.436;10.298;2023-02-05T03:22:41;98080.25;;;-0.08;96.54
39141;BME280;24875;48.436;10.298;2023-02-05T03:25:08;98084.31;;;-0.21;97.07
39141;BME280;24875;48.436;10.298;2023-02-05T03:27:35;98083.03;;;-0.13;96.84
39141;BME280;24875;48.436;10.298;2023-02-05T03:30:06;98086.03;;;-0.22;98.72
39141;BME280;24875;48.436;10.298;2023-02-05T03:32:42;98087.56;;;-0.36;100.00
39141;BME280;24875;48.436;10.298;2023-02-05T03:35:22;98088.66;;;-0.42;100.00
39141;BME280;24875;48.436;10.298;2023-02-05T03:38:03;98083.44;;;-0.22;100.00
39141;BME280;24875;48.436;10.298;2023-02-05T03:40:37;98083.19;;;-0.16;100.00
39141;BME280;24875;48.436;10.298;2023-02-05T03:43:11;98076.69;;;-0.06;97.66
39141;BME280;24875;48.436;10.298;2023-02-05T03:45:47;98082.84;;;-0.08;95.57
39141;BME280;24875;48.436;10.298;2023-02-05T03:48:25;98078.97;;;-0.18;96.52
39141;BME280;24875;48.436;10.298;2023-02-05T03:50:58;98086.31;;;-0.28;98.27
39141;BME280;24875;48.436;10.298;2023-02-05T03:53:35;98091.34;;;-0.25;99.43
39141;BME280;24875;48.436;10.298;2023-02-05T03:56:05;98085.69;;;-0.33;100.00
39141;BME280;24875;48.436;10.298;2023-02-05T03:58:37;98083.81;;;-0.29;100.00
39141;BME280;24875;48.436;10.298;2023-02-05T04:01:09;98091.44;;;-0.26;100.00
39141;BME280;24875;48.436;10.298;2023-02-05T04:03:36;98086.09;;;-0.23;97.98
39141;BME280;24875;48.436;10.298;2023-02-05T04:06:04;98084.72;;;-0.30;97.20
39141;BME280;24875;48.436;10.298;2023-02-05T04:08:30;98088.09;;;-0.48;97.44
39141;BME280;24875;48.436;10.298;2023-02-05T04:10:57;98087.31;;;-0.50;96.92
39141;BME280;24875;48.436;10.298;2023-02-05T04:13:23;98080.31;;;-0.48;97.90
39141;BME280;24875;48.436;10.298;2023-02-05T04:15:50;98074.09;;;-0.64;99.84
39141;BME280;24875;48.436;10.298;2023-02-05T04:18:18;98066.09;;;-0.58;100.00
39141;BME280;24875;48.436;10.298;2023-02-05T04:20:45;98068.28;;;-0.49;99.91
39141;BME280;24875;48.436;10.298;2023-02-05T04:23:11;98068.13;;;-0.46;98.42
39141;BME280;24875;48.436;10.298;2023-02-05T04:25:38;98068.72;;;-0.40;98.17
39141;BME280;24875;48.436;10.298;2023-02-05T04:28:06;98057.19;;;-0.33;96.99
39141;BME280;24875;48.436;10.298;2023-02-05T04:30:32;98061.00;;;-0.41;97.49
39141;BME280;24875;48.436;10.298;2023-02-05T04:32:59;98066.91;;;-0.38;97.39
39141;BME280;24875;48.436;10.298;2023-02-05T04:35:27;98068.31;;;-0.31;97.42
39141;BME280;24875;48.436;10.298;2023-02-05T04:37:53;98070.63;;;-0.43;97.10
39141;BME280;24875;48.436;10.298;2023-02-05T04:40:20;98069.19;;;-0.50;98.07
39141;BME280;24875;48.436;10.298;2023-02-05T04:42:46;98060.69;;;-0.54;98.21
39141;BME280;24875;48.436;10.298;2023-02-05T04:45:13;98057.81;;;-0.66;98.29
39141;BME280;24875;48.436;10.298;2023-02-05T04:47:39;98050.47;;;-0.76;98.85
39141;BME280;24875;48.436;10.298;2023-02-05T04:50:06;98049.50;;;-0.74;99.27
39141;BME280;24875;48.436;10.298;2023-02-05T04:52:34;98038.75;;;-0.65;98.54
39141;BME280;24875;48.436;10.298;2023-02-05T04:55:00;98039.69;;;-0.66;98.27
39141;BME280;24875;48.436;10.298;2023-02-05T04:57:28;98040.84;;;-0.53;97.33
39141;BME280;24875;48.436;10.298;2023-02-05T04:59:55;98044.72;;;-0.63;95.98
39141;BME280;24875;48.436;10.298;2023-02-05T05:02:21;98056.13;;;-0.67;95.29
39141;BME280;24875;48.436;10.298;2023-02-05T05:04:48;98054.69;;;-0.74;95.64
39141;BME280;24875;48.436;10.298;2023-02-05T05:07:15;98055.66;;;-0.76;96.83
39141;BME280;24875;48.436;10.298;2023-02-05T05:09:42;98059.34;;;-0.82;98.11
39141;BME280;24875;48.436;10.298;2023-02-05T05:12:09;98047.44;;;-1.25;99.15
39141;BME280;24875;48.436;10.298;2023-02-05T05:14:35;98042.78;;;-1.18;100.00
39141;BME280;24875;48.436;10.298;2023-02-05T05:17:02;98054.06;;;-0.99;99.47
39141;BME280;24875;48.436;10.298;2023-02-05T05:19:29;98066.03;;;-0.96;97.42
39141;BME280;24875;48.436;10.298;2023-02-05T05:21:56;98058.72;;;-0.87;95.84
39141;BME280;24875;48.436;10.298;2023-02-05T05:24:22;98062.66;;;-0.78;95.87
39141;BME280;24875;48.436;10.298;2023-02-05T05:26:50;98061.84;;;-0.79;96.30
39141;BME280;24875;48.436;10.298;2023-02-05T05:29:16;98073.19;;;-0.83;95.70
39141;BME280;24875;48.436;10.298;2023-02-05T05:31:43;98070.94;;;-0.90;94.69
39141;BME280;24875;48.436;10.298;2023-02-05T05:34:09;98067.81;;;-0.98;97.24
39141;BME280;24875;48.436;10.298;2023-02-05T05:36:36;98062.66;;;-0.98;97.73
39141;BME280;24875;48.436;10.298;2023-02-05T05:39:04;98066.91;;;-0.97;98.23
39141;BME280;24875;48.436;10.298;2023-02-05T05:41:44;98057.22;;;-0.92;97.65
39141;BME280;24875;48.436;10.298;2023-02-05T05:44:29;98071.25;;;-0.78;96.14
39141;BME280;24875;48.436;10.298;2023-02-05T05:46:56;98075.16;;;-0.88;94.32
39141;BME280;24875;48.436;10.298;2023-02-05T05:49:22;98059.22;;;-0.99;95.49
39141;BME280;24875;48.436;10.298;2023-02-05T05:51:49;98057.38;;;-0.95;95.58
39141;BME280;24875;48.436;10.298;2023-02-05T05:54:15;98058.91;;;-0.91;94.49
39141;BME280;24875;48.436;10.298;2023-02-05T05:56:42;98073.66;;;-0.93;94.85
39141;BME280;24875;48.436;10.298;2023-02-05T05:59:10;98076.97;;;-0.90;94.18
39141;BME280;24875;48.436;10.298;2023-02-05T06:01:38;98084.59;;;-0.87;93.81
39141;BME280;24875;48.436;10.298;2023-02-05T06:04:05;98084.72;;;-0.90;94.31
39141;BME280;24875;48.436;10.298;2023-02-05T06:06:31;98084.59;;;-0.87;94.84
39141;BME280;24875;48.436;10.298;2023-02-05T06:08:58;98093.06;;;-0.83;94.93
39141;BME280;24875;48.436;10.298;2023-02-05T06:11:24;98096.16;;;-0.95;93.49
39141;BME280;24875;48.436;10.298;2023-02-05T06:13:51;98086.28;;;-1.06;92.97
39141;BME280;24875;48.436;10.298;2023-02-05T06:16:17;98075.84;;;-1.04;93.89
39141;BME280;24875;48.436;10.298;2023-02-05T06:18:45;98074.09;;;-1.04;95.15
39141;BME280;24875;48.436;10.298;2023-02-05T06:21:12;98074.31;;;-1.08;95.19
39141;BME280;24875;48.436;10.298;2023-02-05T06:23:38;98082.00;;;-1.07;96.01
39141;BME280;24875;48.436;10.298;2023-02-05T06:26:04;98082.38;;;-0.96;95.77
39141;BME280;24875;48.436;10.298;2023-02-05T06:28:31;98089.00;;;-0.89;95.40
39141;BME280;24875;48.436;10.298;2023-02-05T06:30:57;98081.09;;;-0.86;95.78
39141;BME280;24875;48.436;10.298;2023-02-05T06:33:24;98078.19;;;-0.78;95.63
39141;BME280;24875;48.436;10.298;2023-02-05T06:35:52;98083.69;;;-0.66;94.62
39141;BME280;24875;48.436;10.298;2023-02-05T06:38:18;98090.09;;;-0.74;95.09
39141;BME280;24875;48.436;10.298;2023-02-05T06:40:45;98089.78;;;-0.67;95.96
39141;BME280;24875;48.436;10.298;2023-02-05T06:43:12;98077.47;;;-0.62;96.37
39141;BME280;24875;48.436;10.298;2023-02-05T06:45:38;98080.84;;;-0.60;97.12
39141;BME280;24875;48.436;10.298;2023-02-05T06:48:05;98082.53;;;-0.59;97.24
39141;BME280;24875;48.436;10.298;2023-02-05T06:50:31;98081.09;;;-0.46;95.68
39141;BME280;24875;48.436;10.298;2023-02-05T06:52:59;98080.75;;;-0.39;94.93
39141;BME280;24875;48.436;10.298;2023-02-05T06:55:26;98080.19;;;-0.45;94.91
39141;BME280;24875;48.436;10.298;2023-02-05T06:57:52;98070.28;;;-0.56;99.27
39141;BME280;24875;48.436;10.298;2023-02-05T07:00:19;98074.53;;;-0.35;98.34
39141;BME280;24875;48.436;10.298;2023-02-05T07:02:45;98073.28;;;-0.26;97.38
39141;BME280;24875;48.436;10.298;2023-02-05T07:05:12;98072.25;;;-0.22;98.07
39141;BME280;24875;48.436;10.298;2023-02-05T07:07:38;98065.94;;;-0.17;98.01
39141;BME280;24875;48.436;10.298;2023-02-05T07:10:06;98062.69;;;-0.20;100.00
39141;BME280;24875;48.436;10.298;2023-02-05T07:12:33;98058.97;;;-0.15;99.98
39141;BME280;24875;48.436;10.298;2023-02-05T07:14:59;98058.28;;;0.00;100.00
39141;BME280;24875;48.436;10.298;2023-02-05T07:17:26;98062.34;;;0.05;100.00
39141;BME280;24875;48.436;10.298;2023-02-05T07:19:52;98089.09;;;0.06;99.62
39141;BME280;24875;48.436;10.298;2023-02-05T07:22:19;98095.31;;;-0.16;100.00
39141;BME280;24875;48.436;10.298;2023-02-05T07:24:45;98092.41;;;-0.10;100.00
39141;BME280;24875;48.436;10.298;2023-02-05T07:27:13;98084.22;;;-0.02;100.00
39141;BME280;24875;48.436;10.298;2023-02-05T07:29:39;98085.63;;;-0.13;100.00
39141;BME280;24875;48.436;10.298;2023-02-05T07:32:06;98087.03;;;0.12;100.00
39141;BME280;24875;48.436;10.298;2023-02-05T07:34:32;98085.72;;;0.22;100.00
39141;BME280;24875;48.436;10.298;2023-02-05T07:36:59;98080.13;;;0.31;100.00
39141;BME280;24875;48.436;10.298;2023-02-05T07:39:25;98092.38;;;0.28;100.00
39141;BME280;24875;48.436;10.298;2023-02-05T07:41:53;98083.75;;;0.27;100.00
39141;BME280;24875;48.436;10.298;2023-02-05T07:44:21;98082.88;;;0.28;100.00
39141;BME280;24875;48.436;10.298;2023-02-05T07:46:47;98093.00;;;0.33;100.00
39141;BME280;24875;48.436;10.298;2023-02-05T07:49:13;98084.75;;;0.25;100.00
39141;BME280;24875;48.436;10.298;2023-02-05T07:51:40;98077.09;;;0.40;100.00
39141;BME280;24875;48.436;10.298;2023-02-05T07:54:07;98078.41;;;0.67;100.00
39141;BME280;24875;48.436;10.298;2023-02-05T07:56:34;98078.84;;;0.75;100.00
39141;BME280;24875;48.436;10.298;2023-02-05T07:59:00;98069.19;;;0.78;100.00
39141;BME280;24875;48.436;10.298;2023-02-05T08:01:28;98071.13;;;0.92;100.00
39141;BME280;24875;48.436;10.298;2023-02-05T08:03:55;98075.69;;;0.87;100.00
39141;BME280;24875;48.436;10.298;2023-02-05T08:06:21;98063.50;;;0.54;100.00
39141;BME280;24875;48.436;10.298;2023-02-05T08:08:47;98055.03;;;0.67;100.00
39141;BME280;24875;48.436;10.298;2023-02-05T08:11:15;98058.53;;;1.01;100.00
39141;BME280;24875;48.436;10.298;2023-02-05T08:13:43;98047.16;;;1.04;100.00
39141;BME280;24875;48.436;10.298;2023-02-05T08:16:10;98052.25;;;1.05;100.00
39141;BME280;24875;48.436;10.298;2023-02-05T08:18:38;98050.72;;;1.18;100.00
39141;BME280;24875;48.436;10.298;2023-02-05T08:21:04;98047.53;;;1.13;100.00
39141;BME280;24875;48.436;10.298;2023-02-05T08:23:31;98039.91;;;0.93;100.00
39141;BME280;24875;48.436;10.298;2023-02-05T08:25:58;98034.19;;;1.04;100.00
39141;BME280;24875;48.436;10.298;2023-02-05T08:28:26;98028.91;;;1.05;100.00
39141;BME280;24875;48.436;10.298;2023-02-05T08:30:53;98026.69;;;0.98;100.00
39141;BME280;24875;48.436;10.298;2023-02-05T08:33:20;98027.28;;;1.19;100.00
39141;BME280;24875;48.436;10.298;2023-02-05T08:35:48;98027.25;;;1.53;100.00
39141;BME280;24875;48.436;10.298;2023-02-05T08:38:14;98025.25;;;1.58;100.00
39141;BME280;24875;48.436;10.298;2023-02-05T08:40:41;98022.81;;;1.55;100.00
39141;BME280;24875;48.436;10.298;2023-02-05T08:43:07;98020.94;;;1.42;100.00
39141;BME280;24875;48.436;10.298;2023-02-05T08:45:34;98028.06;;;1.71;99.47
39141;BME280;24875;48.436;10.298;2023-02-05T08:48:00;98029.31;;;1.79;99.82
39141;BME280;24875;48.436;10.298;2023-02-05T08:50:27;98022.09;;;1.69;99.61
39141;BME280;24875;48.436;10.298;2023-02-05T08:52:54;98023.03;;;1.83;99.99
39141;BME280;24875;48.436;10.298;2023-02-05T08:55:21;98021.63;;;1.78;99.81
39141;BME280;24875;48.436;10.298;2023-02-05T08:57:47;98023.56;;;1.57;100.00
39141;BME280;24875;48.436;10.298;2023-02-05T09:00:14;98015.78;;;1.57;100.00
39141;BME280;24875;48.436;10.298;2023-02-05T09:02:41;98020.47;;;1.51;100.00
39141;BME280;24875;48.436;10.298;2023-02-05T09:05:09;98016.41;;;1.78;100.00
39141;BME280;24875;48.436;10.298;2023-02-05T09:07:36;98010.03;;;1.68;100.00
39141;BME280;24875;48.436;10.298;2023-02-05T09:10:05;98010.03;;;1.83;100.00
39141;BME280;24875;48.436;10.298;2023-02-05T09:12:31;98014.34;;;1.52;100.00
39141;BME280;24875;48.436;10.298;2023-02-05T09:14:58;98015.88;;;1.56;100.00
39141;BME280;24875;48.436;10.298;2023-02-05T09:17:24;98016.88;;;1.53;100.00
39141;BME280;24875;48.436;10.298;2023-02-05T09:19:51;98009.03;;;1.70;100.00
39141;BME280;24875;48.436;10.298;2023-02-05T09:22:17;98000.31;;;1.71;100.00
39141;BME280;24875;48.436;10.298;2023-02-05T09:24:45;98006.31;;;1.56;100.00
39141;BME280;24875;48.436;10.298;2023-02-05T09:27:12;97995.22;;;2.00;100.00
39141;BME280;24875;48.436;10.298;2023-02-05T09:29:39;97994.22;;;2.03;100.00
39141;BME280;24875;48.436;10.298;2023-02-05T09:32:05;97990.81;;;2.18;100.00
39141;BME280;24875;48.436;10.298;2023-02-05T09:34:32;97969.81;;;2.21;100.00
39141;BME280;24875;48.436;10.298;2023-02-05T09:36:58;97966.81;;;2.28;100.00
39141;BME280;24875;48.436;10.298;2023-02-05T09:39:25;97964.22;;;2.13;100.00
39141;BME280;24875;48.436;10.298;2023-02-05T09:41:54;97963.72;;;2.22;100.00
39141;BME280;24875;48.436;10.298;2023-02-05T09:44:39;97951.59;;;2.36;100.00
39141;BME280;24875;48.436;10.298;2023-02-05T09:47:14;97949.50;;;2.27;100.00
39141;BME280;24875;48.436;10.298;2023-02-05T09:49:49;97946.50;;;2.35;100.00
39141;BME280;24875;48.436;10.298;2023-02-05T09:52:21;97944.91;;;2.61;100.00
39141;BME280;24875;48.436;10.298;2023-02-05T09:54:54;97945.59;;;2.65;100.00
39141;BME280;24875;48.436;10.298;2023-02-05T09:57:29;97944.81;;;2.63;100.00
39141;BME280;24875;48.436;10.298;2023-02-05T09:59:58;97949.69;;;2.24;100.00
39141;BME280;24875;48.436;10.298;2023-02-05T10:02:28;97951.13;;;2.59;100.00
39141;BME280;24875;48.436;10.298;2023-02-05T10:05:00;97943.63;;;2.68;100.00
39141;BME280;24875;48.436;10.298;2023-02-05T10:07:37;97953.06;;;2.55;100.00
39141;BME280;24875;48.436;10.298;2023-02-05T10:10:17;97952.69;;;2.77;100.00
39141;BME280;24875;48.436;10.298;2023-02-05T10:13:08;97954.47;;;2.76;100.00
39141;BME280;24875;48.436;10.298;2023-02-05T10:18:58;97937.75;;;2.80;100.00
39141;BME280;24875;48.436;10.298;2023-02-05T10:21:45;97933.16;;;2.84;100.00
39141;BME280;24875;48.436;10.298;2023-02-05T10:24:27;97929.66;;;2.55;100.00
39141;BME280;24875;48.436;10.298;2023-02-05T10:26:59;97928.25;;;2.79;100.00
39141;BME280;24875;48.436;10.298;2023-02-05T10:29:36;97908.75;;;3.00;100.00
39141;BME280;24875;48.436;10.298;2023-02-05T10:32:17;97911.47;;;3.12;100.00
39141;BME280;24875;48.436;10.298;2023-02-05T10:34:52;97908.50;;;3.04;100.00
39141;BME280;24875;48.436;10.298;2023-02-05T10:37:29;97900.38;;;2.95;100.00
39141;BME280;24875;48.436;10.298;2023-02-05T10:39:58;97895.75;;;3.14;100.00
39141;BME280;24875;48.436;10.298;2023-02-05T10:42:27;97885.88;;;3.19;100.00
39141;BME280;24875;48.436;10.298;2023-02-05T10:45:04;97885.88;;;3.19;100.00
39141;BME280;24875;48.436;10.298;2023-02-05T10:47:45;97891.56;;;3.11;100.00
39141;BME280;24875;48.436;10.298;2023-02-05T10:50:20;97883.47;;;3.30;100.00
39141;BME280;24875;48.436;10.298;2023-02-05T10:52:48;97885.44;;;3.26;100.00
39141;BME280;24875;48.436;10.298;2023-02-05T10:55:14;97893.34;;;3.25;100.00
39141;BME280;24875;48.436;10.298;2023-02-05T10:57:41;97882.16;;;3.23;100.00
39141;BME280;24875;48.436;10.298;2023-02-05T11:00:14;97876.13;;;3.36;100.00
39141;BME280;24875;48.436;10.298;2023-02-05T11:02:43;97873.88;;;3.30;100.00
39141;BME280;24875;48.436;10.298;2023-02-05T11:05:18;97871.19;;;3.32;100.00
39141;BME280;24875;48.436;10.298;2023-02-05T11:07:46;97855.47;;;3.19;100.00
39141;BME280;24875;48.436;10.298;2023-02-05T11:10:16;97848.50;;;3.34;100.00
39141;BME280;24875;48.436;10.298;2023-02-05T11:12:43;97851.16;;;3.46;100.00
39141;BME280;24875;48.436;10.298;2023-02-05T11:15:19;97851.06;;;3.62;100.00
39141;BME280;24875;48.436;10.298;2023-02-05T11:17:49;97846.91;;;3.71;99.50
39141;BME280;24875;48.436;10.298;2023-02-05T11:20:31;97850.75;;;3.66;100.00
39141;BME280;24875;48.436;10.298;2023-02-05T11:23:15;97840.78;;;3.72;99.90
39141;BME280;24875;48.436;10.298;2023-02-05T11:25:48;97842.00;;;3.67;99.41
39141;BME280;24875;48.436;10.298;2023-02-05T11:28:19;97841.38;;;3.63;99.64
39141;BME280;24875;48.436;10.298;2023-02-05T11:30:47;97842.31;;;3.49;100.00
39141;BME280;24875;48.436;10.298;2023-02-05T11:33:18;97838.41;;;3.56;100.00
39141;BME280;24875;48.436;10.298;2023-02-05T11:35:53;97832.09;;;3.32;100.00
39141;BME280;24875;48.436;10.298;2023-02-05T11:38:24;97831.94;;;3.35;100.00
39141;BME280;24875;48.436;10.298;2023-02-05T11:40:56;97825.78;;;3.36;100.00
39141;BME280;24875;48.436;10.298;2023-02-05T11:43:26;97829.66;;;3.57;100.00
39141;BME280;24875;48.436;10.298;2023-02-05T11:45:55;97826.31;;;3.41;100.00
39141;BME280;24875;48.436;10.298;2023-02-05T11:48:32;97829.38;;;3.61;100.00
39141;BME280;24875;48.436;10.298;2023-02-05T11:51:03;97821.44;;;3.62;100.00
39141;BME280;24875;48.436;10.298;2023-02-05T11:53:31;97829.47;;;3.60;100.00
39141;BME280;24875;48.436;10.298;2023-02-05T11:56:02;97825.78;;;3.76;100.00
39141;BME280;24875;48.436;10.298;2023-02-05T11:58:32;97816.72;;;3.81;100.00
39141;BME280;24875;48.436;10.298;2023-02-05T12:01:02;97831.94;;;3.75;100.00
39141;BME280;24875;48.436;10.298;2023-02-05T12:03:30;97829.00;;;3.53;100.00
39141;BME280;24875;48.436;10.298;2023-02-05T12:08:53;97832.25;;;3.70;100.00
39141;BME280;24875;48.436;10.298;2023-02-05T12:11:31;97835.44;;;3.48;100.00
39141;BME280;24875;48.436;10.298;2023-02-05T12:14:26;97825.06;;;3.60;100.00
39141;BME280;24875;48.436;10.298;2023-02-05T12:17:04;97818.19;;;3.73;100.00
39141;BME280;24875;48.436;10.298;2023-02-05T12:19:41;97814.13;;;3.81;100.00
39141;BME280;24875;48.436;10.298;2023-02-05T12:22:18;97813.78;;;3.73;100.00
39141;BME280;24875;48.436;10.298;2023-02-05T12:25:00;97802.03;;;3.80;100.00
39141;BME280;24875;48.436;10.298;2023-02-05T12:27:44;97807.00;;;3.71;100.00
39141;BME280;24875;48.436;10.298;2023-02-05T12:30:31;97801.56;;;3.74;100.00
39141;BME280;24875;48.436;10.298;2023-02-05T12:33:12;97801.47;;;3.49;100.00
39141;BME280;24875;48.436;10.298;2023-02-05T12:35:49;97799.34;;;3.42;100.00
39141;BME280;24875;48.436;10.298;2023-02-05T12:38:23;97793.59;;;3.37;100.00
39141;BME280;24875;48.436;10.298;2023-02-05T12:41:04;97786.13;;;3.31;100.00
39141;BME280;24875;48.436;10.298;2023-02-05T12:43:36;97784.94;;;3.36;100.00
39141;BME280;24875;48.436;10.298;2023-02-05T12:46:25;97780.81;;;3.46;100.00
39141;BME280;24875;48.436;10.298;2023-02-05T12:49:09;97780.19;;;3.43;100.00
39141;BME280;24875;48.436;10.298;2023-02-05T12:51:51;97775.75;;;3.17;100.00
39141;BME280;24875;48.436;10.298;2023-02-05T12:54:29;97770.13;;;3.37;100.00
39141;BME280;24875;48.436;10.298;2023-02-05T12:57:04;97770.25;;;3.21;100.00
39141;BME280;24875;48.436;10.298;2023-02-05T12:59:37;97767.41;;;2.98;100.00
39141;BME280;24875;48.436;10.298;2023-02-05T13:02:10;97756.78;;;3.15;100.00
39141;BME280;24875;48.436;10.298;2023-02-05T13:04:42;97760.59;;;3.23;100.00
39141;BME280;24875;48.436;10.298;2023-02-05T13:07:16;97767.00;;;3.18;100.00
39141;BME280;24875;48.436;10.298;2023-02-05T13:09:52;97759.03;;;3.21;100.00
39141;BME280;24875;48.436;10.298;2023-02-05T13:12:25;97766.97;;;3.32;100.00
39141;BME280;24875;48.436;10.298;2023-02-05T13:14:59;97763.34;;;3.34;100.00